createdAt,value
2019-01-19T00:00:28.432Z,2.37
2019-01-19T00:03:30.791Z,2.50
2019-01-19T00:06:27.745Z,2.57
2019-01-19T00:09:06.688Z,1.50
2019-01-19T00:12:18.074Z,1.93
2019-01-19T00:15:00.294Z,2.10
2019-01-19T00:17:57.063Z,1.90
2019-01-19T00:21:00.634Z,2.07
2019-01-19T00:24:06.547Z,2.20
2019-01-19T00:27:08.842Z,1.80
2019-01-19T00:29:58.438Z,2.20
2019-01-19T00:33:03.508Z,2.57
2019-01-19T00:36:01.462Z,1.90
2019-01-19T00:39:10.544Z,2.83
2019-01-19T00:41:59.975Z,2.40
2019-01-19T00:44:42.772Z,2.13
2019-01-19T00:47:21.606Z,2.40
2019-01-19T00:50:07.213Z,2.17
2019-01-19T00:53:10.695Z,2.40
2019-01-19T00:56:13.818Z,2.17
2019-01-19T00:58:53.101Z,1.90
2019-01-19T01:02:09.359Z,2.17
2019-01-19T01:04:43.211Z,2.50
2019-01-19T01:07:47.459Z,2.00
2019-01-19T01:10:42.058Z,2.30
2019-01-19T01:13:33.870Z,2.20
2019-01-19T01:16:38.522Z,1.93
2019-01-19T01:19:41.483Z,1.77
2019-01-19T01:22:20.271Z,2.03
2019-01-19T01:25:20.078Z,2.73
2019-01-19T01:28:39.432Z,2.20
2019-01-19T01:31:25.194Z,2.20
2019-01-19T01:34:15.185Z,2.27
2019-01-19T01:37:31.259Z,2.63
2019-01-19T01:40:09.426Z,2.20
2019-01-19T01:43:11.452Z,2.20
2019-01-19T01:46:12.607Z,2.27
2019-01-19T01:49:15.278Z,1.80
2019-01-19T01:52:18.175Z,2.40
2019-01-19T01:55:01.506Z,2.23
2019-01-19T01:57:38.678Z,2.27
2019-01-19T02:00:21.300Z,3.13
2019-01-19T02:03:36.660Z,2.60
2019-01-19T02:06:33.022Z,2.10
2019-01-19T02:09:40.564Z,2.60
2019-01-19T02:12:35.015Z,1.70
2019-01-19T02:15:39.735Z,2.07
2019-01-19T02:18:55.951Z,1.90
2019-01-19T02:21:44.371Z,2.57
2019-01-19T02:24:44.218Z,3.40
2019-01-19T02:27:49.019Z,2.00
2019-01-19T02:31:10.679Z,2.00
2019-01-19T02:34:00.851Z,2.40
2019-01-19T02:37:09.151Z,2.33
2019-01-19T02:40:15.754Z,2.27
2019-01-19T02:43:22.956Z,2.03
2019-01-19T02:46:21.882Z,2.67
2019-01-19T02:49:42.611Z,2.30
2019-01-19T02:52:53.507Z,2.23
2019-01-19T02:55:53.534Z,2.33
2019-01-19T02:59:07.195Z,2.33
2019-01-19T03:02:12.801Z,2.03
2019-01-19T03:05:05.755Z,2.50
2019-01-19T03:08:00.248Z,2.53
2019-01-19T03:11:05.999Z,2.53
2019-01-19T03:14:06.315Z,2.60
2019-01-19T03:17:10.674Z,3.07
2019-01-19T03:19:58.132Z,3.00
2019-01-19T03:23:14.327Z,2.80
2019-01-19T03:25:54.363Z,2.40
2019-01-19T03:28:37.283Z,2.57
2019-01-19T03:31:35.681Z,2.90
2019-01-19T03:34:37.136Z,3.13
2019-01-19T03:37:37.242Z,2.97
2019-01-19T03:40:46.026Z,3.63
2019-01-19T03:43:56.524Z,2.70
2019-01-19T03:46:51.320Z,2.93
2019-01-19T03:49:37.327Z,3.33
2019-01-19T03:52:43.926Z,2.53
2019-01-19T03:55:49.890Z,2.83
2019-01-19T03:58:24.204Z,2.93
2019-01-19T04:01:05.594Z,3.83
2019-01-19T04:04:16.459Z,2.80
2019-01-19T04:07:10.132Z,3.27
2019-01-19T04:10:28.999Z,3.33
2019-01-19T04:13:20.911Z,2.80
2019-01-19T04:16:26.687Z,3.00
2019-01-19T04:19:08.071Z,3.23
2019-01-19T04:21:48.839Z,3.43
2019-01-19T04:24:24.606Z,2.37
2019-01-19T04:26:56.344Z,4.43
2019-01-19T04:29:25.389Z,3.03
2019-01-19T04:31:55.374Z,3.13
2019-01-19T04:34:24.483Z,2.40
2019-01-19T04:36:53.511Z,3.70
2019-01-19T04:39:22.192Z,2.43
2019-01-19T04:41:51.544Z,2.97
2019-01-19T04:44:20.175Z,3.07
2019-01-19T04:46:48.956Z,2.77
2019-01-19T04:49:17.783Z,3.03
2019-01-19T04:51:46.515Z,3.37
2019-01-19T04:54:15.243Z,2.40
2019-01-19T04:56:43.983Z,2.87
2019-01-19T04:59:12.700Z,3.10
2019-01-19T05:01:41.440Z,3.77
2019-01-19T05:04:10.100Z,2.13
2019-01-19T05:06:39.223Z,2.10
2019-01-19T05:09:08.550Z,2.87
2019-01-19T05:11:37.298Z,3.00
2019-01-19T05:14:05.990Z,3.67
2019-01-19T05:16:34.998Z,3.10
2019-01-19T05:19:03.984Z,3.00
2019-01-19T05:21:32.704Z,2.77
2019-01-19T05:24:01.427Z,3.37
2019-01-19T05:26:30.326Z,3.90
2019-01-19T05:28:59.004Z,3.53
2019-01-19T05:31:27.714Z,3.77
2019-01-19T05:33:56.732Z,3.53
2019-01-19T05:36:25.484Z,3.47
2019-01-19T05:38:54.513Z,2.80
2019-01-19T05:41:23.419Z,3.10
2019-01-19T05:43:52.156Z,3.80
2019-01-19T05:46:21.527Z,3.37
2019-01-19T05:48:50.986Z,4.00
2019-01-19T05:51:19.658Z,3.60
2019-01-19T05:53:48.698Z,4.27
2019-01-19T05:56:17.337Z,3.73
2019-01-19T05:58:46.031Z,3.77
2019-01-19T06:01:14.968Z,4.23
2019-01-19T06:03:43.710Z,4.60
2019-01-19T06:06:13.187Z,4.27
2019-01-19T06:08:41.887Z,3.63
2019-01-19T06:11:10.619Z,3.47
2019-01-19T06:13:39.361Z,3.43
2019-01-19T06:16:08.055Z,3.20
2019-01-19T06:18:37.479Z,3.33
2019-01-19T06:21:07.915Z,3.57
2019-01-19T06:23:36.925Z,4.30
2019-01-19T06:26:05.656Z,3.37
2019-01-19T06:28:34.592Z,3.77
2019-01-19T06:31:03.247Z,3.73
2019-01-19T06:33:32.198Z,3.77
2019-01-19T06:36:00.911Z,3.83
2019-01-19T06:38:29.940Z,3.53
2019-01-19T06:40:58.607Z,4.63
2019-01-19T06:43:27.277Z,3.47
2019-01-19T06:45:56.082Z,3.93
2019-01-19T06:48:25.013Z,3.07
2019-01-19T06:50:53.875Z,4.23
2019-01-19T06:53:22.551Z,4.10
2019-01-19T06:55:51.397Z,4.07
2019-01-19T06:58:20.129Z,3.70
2019-01-19T07:00:48.849Z,4.03
2019-01-19T07:03:17.872Z,4.13
2019-01-19T07:05:46.683Z,4.30
2019-01-19T07:08:16.039Z,4.77
2019-01-19T07:10:44.837Z,3.47
2019-01-19T07:13:13.558Z,4.10
2019-01-19T07:15:42.371Z,3.33
2019-01-19T07:18:11.079Z,4.23
2019-01-19T07:20:39.742Z,3.47
2019-01-19T07:23:08.412Z,3.63
2019-01-19T07:25:37.150Z,4.73
2019-01-19T07:28:05.893Z,4.07
2019-01-19T07:30:34.661Z,4.87
2019-01-19T07:33:03.315Z,4.23
2019-01-19T07:35:32.081Z,3.77
2019-01-19T07:38:01.093Z,4.43
2019-01-19T07:40:29.750Z,5.20
2019-01-19T07:43:06.471Z,5.20
2019-01-19T07:45:35.598Z,4.80
2019-01-19T07:48:05.451Z,4.90
2019-01-19T07:50:34.209Z,4.93
2019-01-19T07:53:02.933Z,5.63
2019-01-19T07:55:31.679Z,5.43
2019-01-19T07:58:00.368Z,5.27
2019-01-19T08:00:30.701Z,5.13
2019-01-19T08:02:59.763Z,4.97
2019-01-19T08:05:28.555Z,5.03
2019-01-19T08:07:57.545Z,4.57
2019-01-19T08:10:26.262Z,4.90
2019-01-19T08:12:54.972Z,4.80
2019-01-19T08:15:25.124Z,4.77
2019-01-19T08:17:54.143Z,5.77
2019-01-19T08:20:23.214Z,5.77
2019-01-19T08:22:52.418Z,6.40
2019-01-19T08:25:21.177Z,7.50
2019-01-19T08:27:50.122Z,6.17
2019-01-19T08:30:21.346Z,6.43
2019-01-19T08:32:50.509Z,5.03
2019-01-19T08:35:19.628Z,5.20
2019-01-19T08:37:48.332Z,5.40
2019-01-19T08:40:19.347Z,5.60
2019-01-19T08:42:51.902Z,6.00
2019-01-19T08:45:24.126Z,6.27
2019-01-19T08:47:52.846Z,6.00
2019-01-19T08:50:21.529Z,5.60
2019-01-19T08:52:50.291Z,5.20
2019-01-19T08:55:19.010Z,5.87
2019-01-19T08:57:47.715Z,6.23
2019-01-19T09:00:16.502Z,6.43
2019-01-19T09:02:45.334Z,5.23
2019-01-19T09:05:14.621Z,5.13
2019-01-19T09:07:43.470Z,5.10
2019-01-19T09:10:13.691Z,6.03
2019-01-19T09:12:42.930Z,5.90
2019-01-19T09:15:13.453Z,6.17
2019-01-19T09:17:42.216Z,6.63
2019-01-19T09:20:12.542Z,6.07
2019-01-19T09:22:41.240Z,5.97
2019-01-19T09:25:12.312Z,6.13
2019-01-19T09:27:41.159Z,6.70
2019-01-19T09:30:16.847Z,6.50
2019-01-19T09:32:45.892Z,6.40
2019-01-19T09:35:14.914Z,5.80
2019-01-19T09:37:43.652Z,6.50
2019-01-19T09:40:13.687Z,6.73
2019-01-19T09:42:42.465Z,6.40
2019-01-19T09:45:12.647Z,7.90
2019-01-19T09:47:41.302Z,7.50
2019-01-19T09:50:12.372Z,7.33
2019-01-19T09:52:41.101Z,6.43
2019-01-19T09:55:10.057Z,5.87
2019-01-19T09:57:39.113Z,6.40
2019-01-19T10:00:11.725Z,6.37
2019-01-19T10:02:40.664Z,6.90
2019-01-19T10:05:12.953Z,7.07
2019-01-19T10:07:48.264Z,7.17
2019-01-19T10:10:12.635Z,6.93
2019-01-19T10:12:41.547Z,7.10
2019-01-19T10:15:11.782Z,7.30
2019-01-19T10:17:40.763Z,7.13
2019-01-19T10:20:12.548Z,6.63
2019-01-19T10:22:41.491Z,6.33
2019-01-19T10:25:11.451Z,7.40
2019-01-19T10:27:40.170Z,7.10
2019-01-19T10:30:12.614Z,7.53
2019-01-19T10:32:41.657Z,6.90
2019-01-19T10:35:11.436Z,6.73
2019-01-19T10:37:40.478Z,7.87
2019-01-19T10:40:10.635Z,6.00
2019-01-19T10:42:39.389Z,6.57
2019-01-19T10:45:11.030Z,7.40
2019-01-19T10:47:40.127Z,7.30
2019-01-19T10:50:11.508Z,6.67
2019-01-19T10:52:40.380Z,7.13
2019-01-19T10:55:10.339Z,7.30
2019-01-19T10:57:39.293Z,6.93
2019-01-19T11:00:12.243Z,7.23
2019-01-19T11:02:41.984Z,7.10
2019-01-19T11:05:13.055Z,6.10
2019-01-19T11:07:43.513Z,6.93
2019-01-19T11:10:15.311Z,7.07
2019-01-19T11:12:44.506Z,6.33
2019-01-19T11:15:14.831Z,6.23
2019-01-19T11:17:44.163Z,7.07
2019-01-19T11:20:15.945Z,7.13
2019-01-19T11:22:44.600Z,7.70
2019-01-19T11:25:13.716Z,6.87
2019-01-19T11:27:42.437Z,6.70
2019-01-19T11:30:14.587Z,7.83
2019-01-19T11:32:44.490Z,7.63
2019-01-19T11:35:14.294Z,7.87
2019-01-19T11:37:44.116Z,7.17
2019-01-19T11:40:18.412Z,7.40
2019-01-19T11:42:47.287Z,7.70
2019-01-19T11:45:18.011Z,7.33
2019-01-19T11:47:46.654Z,8.80
2019-01-19T11:50:17.013Z,6.90
2019-01-19T11:52:46.218Z,10.17
2019-01-19T11:55:18.348Z,7.70
2019-01-19T11:57:48.599Z,7.30
2019-01-19T12:00:19.380Z,7.17
2019-01-19T12:02:48.443Z,7.40
2019-01-19T12:05:17.547Z,7.47
2019-01-19T12:07:46.633Z,8.07
2019-01-19T12:10:20.864Z,8.23
2019-01-19T12:12:49.937Z,7.03
2019-01-19T12:15:18.770Z,7.00
2019-01-19T12:17:47.560Z,7.10
2019-01-19T12:20:25.227Z,7.37
2019-01-19T12:22:54.385Z,7.40
2019-01-19T12:25:23.867Z,7.17
2019-01-19T12:27:52.824Z,7.30
2019-01-19T12:30:23.833Z,7.40
2019-01-19T12:32:52.504Z,7.63
2019-01-19T12:35:21.275Z,7.87
2019-01-19T12:37:50.157Z,7.60
2019-01-19T12:40:20.585Z,7.83
2019-01-19T12:42:51.359Z,6.60
2019-01-19T12:45:26.490Z,7.37
2019-01-19T12:47:55.277Z,7.77
2019-01-19T12:50:25.148Z,6.87
2019-01-19T12:52:53.881Z,7.27
2019-01-19T12:55:23.622Z,7.97
2019-01-19T12:57:52.344Z,8.57
2019-01-19T13:00:24.587Z,7.53
2019-01-19T13:02:53.651Z,7.10
2019-01-19T13:05:38.107Z,7.40
2019-01-19T13:08:08.827Z,7.00
2019-01-19T13:10:51.644Z,7.07
2019-01-19T13:13:29.906Z,7.53
2019-01-19T13:16:46.415Z,6.97
2019-01-19T13:19:58.798Z,6.87
2019-01-19T13:23:06.002Z,7.50
2019-01-19T13:26:12.343Z,7.20
2019-01-19T13:29:21.631Z,8.00
2019-01-19T13:32:30.833Z,7.17
2019-01-19T13:35:08.340Z,7.30
2019-01-19T13:38:17.743Z,8.23
2019-01-19T13:41:41.311Z,6.50
2019-01-19T13:44:48.966Z,6.57
2019-01-19T13:48:20.202Z,7.30
2019-01-19T13:51:17.507Z,7.00
2019-01-19T13:54:09.920Z,7.90
2019-01-19T13:57:04.532Z,7.47
2019-01-19T13:59:57.978Z,7.07
2019-01-19T14:03:05.702Z,8.17
2019-01-19T14:05:56.769Z,8.33
2019-01-19T14:09:20.974Z,6.97
2019-01-19T14:12:17.703Z,7.80
2019-01-19T14:15:14.759Z,8.33
2019-01-19T14:18:15.327Z,7.70
2019-01-19T14:21:21.112Z,8.30
2019-01-19T14:24:02.194Z,8.27
2019-01-19T14:26:59.039Z,7.83
2019-01-19T14:30:00.755Z,8.03
2019-01-19T14:32:59.623Z,10.10
2019-01-19T14:35:49.465Z,7.73
2019-01-19T14:38:40.051Z,7.97
2019-01-19T14:41:36.472Z,7.93
2019-01-19T14:44:25.462Z,8.27
2019-01-19T14:47:41.275Z,9.33
2019-01-19T14:50:29.475Z,7.27
2019-01-19T14:53:39.551Z,7.80
2019-01-19T14:56:35.960Z,8.00
2019-01-19T14:59:31.237Z,7.97
2019-01-19T15:02:55.131Z,8.67
2019-01-19T15:05:49.086Z,7.60
2019-01-19T15:08:34.244Z,7.80
2019-01-19T15:11:29.919Z,8.37
2019-01-19T15:14:29.590Z,7.30
2019-01-19T15:17:34.547Z,7.67
2019-01-19T15:20:19.678Z,8.23
2019-01-19T15:23:27.572Z,6.73
2019-01-19T15:26:39.162Z,7.27
2019-01-19T15:29:39.738Z,7.80
2019-01-19T15:32:38.949Z,8.17
2019-01-19T15:36:13.285Z,7.33
2019-01-19T15:39:13.009Z,6.27
2019-01-19T15:42:19.362Z,6.40
2019-01-19T15:45:09.723Z,7.93
2019-01-19T15:48:06.900Z,7.37
2019-01-19T15:51:05.438Z,7.10
2019-01-19T15:54:09.872Z,7.70
2019-01-19T15:57:18.639Z,7.37
2019-01-19T16:00:23.595Z,7.00
2019-01-19T16:03:10.803Z,6.03
2019-01-19T16:06:20.300Z,7.13
2019-01-19T16:09:20.343Z,6.60
2019-01-19T16:12:36.851Z,7.53
2019-01-19T16:15:56.339Z,7.40
2019-01-19T16:19:14.645Z,7.63
2019-01-19T16:22:07.034Z,7.17
2019-01-19T16:25:12.665Z,8.00
2019-01-19T16:28:23.642Z,8.30
2019-01-19T16:31:27.711Z,7.17
2019-01-19T16:34:25.276Z,7.77
2019-01-19T16:37:17.576Z,7.30
2019-01-19T16:40:03.200Z,7.20
2019-01-19T16:42:55.762Z,8.43
2019-01-19T16:46:21.127Z,8.03
2019-01-19T16:49:17.934Z,8.27
2019-01-19T16:52:29.206Z,7.20
2019-01-19T16:55:41.709Z,7.97
2019-01-19T16:58:48.246Z,8.30
2019-01-19T17:01:27.258Z,7.93
2019-01-19T17:04:24.882Z,7.43
2019-01-19T17:07:28.866Z,7.47
2019-01-19T17:10:20.712Z,7.87
2019-01-19T17:13:22.803Z,9.63
2019-01-19T17:16:34.034Z,9.30
2019-01-19T17:19:10.387Z,9.03
2019-01-19T17:22:03.277Z,8.63
2019-01-19T17:24:49.986Z,8.50
2019-01-19T17:27:46.756Z,8.93
2019-01-19T17:30:46.998Z,9.10
2019-01-19T17:34:05.863Z,9.77
2019-01-19T17:37:01.947Z,9.00
2019-01-19T17:40:17.408Z,9.73
2019-01-19T17:43:14.798Z,10.10
2019-01-19T17:46:29.605Z,10.47
2019-01-19T17:49:35.689Z,11.13
2019-01-19T17:53:00.795Z,11.07
2019-01-19T17:56:05.510Z,11.07
2019-01-19T17:58:56.964Z,10.23
2019-01-19T18:02:13.744Z,10.70
2019-01-19T18:05:48.167Z,10.70
2019-01-19T18:08:50.975Z,9.77
2019-01-19T18:11:56.454Z,10.07
2019-01-19T18:15:05.511Z,11.27
2019-01-19T18:18:19.345Z,10.73
2019-01-19T18:21:37.870Z,10.17
2019-01-19T18:24:54.617Z,9.57
2019-01-19T18:27:37.084Z,8.80
2019-01-19T18:30:28.680Z,10.43
2019-01-19T18:33:38.648Z,9.47
2019-01-19T18:36:36.053Z,10.70
2019-01-19T18:39:42.875Z,9.07
2019-01-19T18:42:44.661Z,10.90
2019-01-19T18:46:03.086Z,8.73
2019-01-19T18:49:34.703Z,8.73
2019-01-19T18:52:26.113Z,8.70
2019-01-19T18:55:13.972Z,9.90
2019-01-19T18:58:21.023Z,7.53
2019-01-19T19:01:22.675Z,8.33
2019-01-19T19:04:36.034Z,8.97
2019-01-19T19:07:21.719Z,7.50
2019-01-19T19:10:19.260Z,8.43
2019-01-19T19:12:58.650Z,8.63
2019-01-19T19:15:51.892Z,8.97
2019-01-19T19:19:03.727Z,8.60
2019-01-19T19:22:29.289Z,9.10
2019-01-19T19:25:25.530Z,8.57
2019-01-19T19:28:30.583Z,7.80
2019-01-19T19:31:29.319Z,9.17
2019-01-19T19:34:39.686Z,9.23
2019-01-19T19:37:39.115Z,7.57
2019-01-19T19:40:52.323Z,8.67
2019-01-19T19:43:32.178Z,8.30
2019-01-19T19:46:17.959Z,9.27
2019-01-19T19:49:30.627Z,10.03
2019-01-19T19:52:04.478Z,10.83
2019-01-19T19:54:34.433Z,9.47
2019-01-19T19:57:03.379Z,9.67
2019-01-19T19:59:32.256Z,9.37
2019-01-19T20:02:01.446Z,10.83
2019-01-19T20:04:30.507Z,10.90
2019-01-19T20:07:00.136Z,9.97
2019-01-19T20:09:29.490Z,9.03
2019-01-19T20:12:03.619Z,9.60
2019-01-19T20:14:32.404Z,11.00
2019-01-19T20:17:01.574Z,9.60
2019-01-19T20:19:31.003Z,10.13
2019-01-19T20:21:59.758Z,8.57
2019-01-19T20:24:28.786Z,9.03
2019-01-19T20:26:57.476Z,8.40
2019-01-19T20:29:26.414Z,10.97
2019-01-19T20:31:55.185Z,9.83
2019-01-19T20:34:23.955Z,9.93
2019-01-19T20:36:52.744Z,10.47
2019-01-19T20:39:21.555Z,11.30
2019-01-19T20:41:50.301Z,10.87
2019-01-19T20:44:19.320Z,10.53
2019-01-19T20:46:48.127Z,9.17
2019-01-19T20:49:16.955Z,9.87
2019-01-19T20:51:45.771Z,10.57
2019-01-19T20:54:14.703Z,9.53
2019-01-19T20:56:43.450Z,10.50
2019-01-19T20:59:12.315Z,8.17
2019-01-19T21:01:41.434Z,8.97
2019-01-19T21:04:15.723Z,9.40
2019-01-19T21:06:41.171Z,8.17
2019-01-19T21:09:11.623Z,10.10
2019-01-19T21:11:40.760Z,9.07
2019-01-19T21:14:09.797Z,8.77
2019-01-19T21:16:38.557Z,9.00
2019-01-19T21:19:07.307Z,8.33
2019-01-19T21:21:36.709Z,8.17
2019-01-19T21:24:05.609Z,9.57
2019-01-19T21:26:37.220Z,10.33
2019-01-19T21:29:06.288Z,10.03
2019-01-19T21:31:35.169Z,9.83
2019-01-19T21:34:03.882Z,9.63
2019-01-19T21:36:32.687Z,10.17
2019-01-19T21:39:01.795Z,9.77
2019-01-19T21:41:30.632Z,9.47
2019-01-19T21:43:59.475Z,9.83
2019-01-19T21:46:28.769Z,10.40
2019-01-19T21:48:57.637Z,8.97
2019-01-19T21:51:26.661Z,10.60
2019-01-19T21:57:17.255Z,9.27
2019-01-19T21:59:45.944Z,10.63
2019-01-19T22:02:14.947Z,10.50
2019-01-19T22:04:43.787Z,10.63
2019-01-19T22:07:13.044Z,10.20
2019-01-19T22:09:42.074Z,10.23
2019-01-19T22:12:10.873Z,8.10
2019-01-19T22:14:39.639Z,9.20
2019-01-19T22:17:08.395Z,9.07
2019-01-19T22:19:37.192Z,11.03
2019-01-19T22:22:06.158Z,10.17
2019-01-19T22:24:35.310Z,11.27
2019-01-19T22:27:05.884Z,8.57
2019-01-19T22:29:34.746Z,9.97
2019-01-19T22:32:03.622Z,9.67
2019-01-19T22:34:32.482Z,9.90
2019-01-19T22:37:01.472Z,9.47
2019-01-19T22:39:30.934Z,11.37
2019-01-19T22:42:00.293Z,9.60
2019-01-19T22:44:29.351Z,9.60
2019-01-19T22:46:58.518Z,9.90
2019-01-19T22:49:27.420Z,11.93
2019-01-19T22:51:56.140Z,9.73
2019-01-19T22:54:25.162Z,8.80
2019-01-19T22:56:53.902Z,9.80
2019-01-19T22:59:22.644Z,10.90
2019-01-19T23:02:00.547Z,8.97
2019-01-19T23:04:30.525Z,10.03
2019-01-19T23:06:59.233Z,10.73
2019-01-19T23:09:28.077Z,9.93
2019-01-19T23:12:00.889Z,11.37
2019-01-19T23:14:36.474Z,9.70
2019-01-19T23:17:05.407Z,8.90
2019-01-19T23:19:34.406Z,10.37
2019-01-19T23:22:03.282Z,9.03
2019-01-19T23:24:32.023Z,9.97
2019-01-19T23:27:07.451Z,10.30
2019-01-19T23:29:36.281Z,8.00
2019-01-19T23:32:05.370Z,9.83
2019-01-19T23:34:34.403Z,11.03
2019-01-19T23:37:03.247Z,10.97
2019-01-19T23:39:32.988Z,11.03
2019-01-19T23:42:02.069Z,11.00
2019-01-19T23:44:31.319Z,10.53
2019-01-19T23:47:00.172Z,9.80
2019-01-19T23:49:28.985Z,9.43
2019-01-19T23:51:57.957Z,9.90
2019-01-19T23:54:26.727Z,10.50
2019-01-19T23:56:55.968Z,9.87
2019-01-19T23:59:25.062Z,10.13
